Lakes of Four Seasons, Indiana
Current Conditions -  °F | °C
As of 2:15 PM on Saturday 20 Dec 2014 (Local Time) from KIGQ Reporting Station
Overcast Overcast  
Wind Chill: 25°   Ceiling: 2100
Heat Index: 33°   Visibility: 10mi
Dew Point: 26°   Wind: 8mph
Humidity: 77%   Direction: 210°SSW
Pressure: 30.25"   Gusts: NA
Location:  41.4039°N, 87.3294°W
Report Text: KIGQ 202015Z AUTO 21007KT 10SM BKN021 OVC065 00/M03 A3025 RMK AO2 T00031033
Loading
Personal Weather Stations






























Interactive Weather Map New forecast layout! Learn more

10-Day Weather Forecast

Advertisements
Track Severe Weather on mobile